sensor_id;sensor_type;location;lat;lon;timestamp;P1;P2;P0
64613;PMS5003;51025;37.772;-122.432;2023-06-14T00:02:13;2;2;
64613;PMS5003;51025;37.772;-122.432;2023-06-14T00:04:41;1;1;
64613;PMS5003;51025;37.772;-122.432;2023-06-14T00:07:09;2;2;
64613;PMS5003;51025;37.772;-122.432;2023-06-14T00:09:37;1;1;
64613;PMS5003;51025;37.772;-122.432;2023-06-14T00:12:06;2;2;
64613;PMS5003;51025;37.772;-122.432;2023-06-14T00:14:35;2;2;
64613;PMS5003;51025;37.772;-122.432;2023-06-14T00:17:03;1;1;
64613;PMS5003;51025;37.772;-122.432;2023-06-14T00:19:32;2;2;
64613;PMS5003;51025;37.772;-122.432;2023-06-14T00:22:00;1;1;
64613;PMS5003;51025;37.772;-122.432;2023-06-14T00:24:28;3;3;
64613;PMS5003;51025;37.772;-122.432;2023-06-14T00:26:56;1;1;
64613;PMS5003;51025;37.772;-122.432;2023-06-14T00:29:24;1;1;
64613;PMS5003;51025;37.772;-122.432;2023-06-14T00:31:52;1;1;
64613;PMS5003;51025;37.772;-122.432;2023-06-14T00:34:20;2;2;
64613;PMS5003;51025;37.772;-122.432;2023-06-14T00:36:48;1;1;
64613;PMS5003;51025;37.772;-122.432;2023-06-14T00:39:16;0;0;
64613;PMS5003;51025;37.772;-122.432;2023-06-14T00:41:44;2;2;
64613;PMS5003;51025;37.772;-122.432;2023-06-14T00:44:12;1;1;
64613;PMS5003;51025;37.772;-122.432;2023-06-14T00:46:43;2;2;
64613;PMS5003;51025;37.772;-122.432;2023-06-14T00:49:11;1;1;
64613;PMS5003;51025;37.772;-122.432;2023-06-14T00:51:42;2;2;
64613;PMS5003;51025;37.772;-122.432;2023-06-14T00:54:11;4;2;
64613;PMS5003;51025;37.772;-122.432;2023-06-14T00:56:39;2;2;
64613;PMS5003;51025;37.772;-122.432;2023-06-14T00:59:10;3;2;
64613;PMS5003;51025;37.772;-122.432;2023-06-14T01:01:38;2;2;
64613;PMS5003;51025;37.772;-122.432;2023-06-14T01:04:07;1;1;
64613;PMS5003;51025;37.772;-122.432;2023-06-14T01:06:39;1;1;
64613;PMS5003;51025;37.772;-122.432;2023-06-14T01:09:14;4;2;
64613;PMS5003;51025;37.772;-122.432;2023-06-14T01:11:49;2;2;
64613;PMS5003;51025;37.772;-122.432;2023-06-14T01:14:25;3;2;
64613;PMS5003;51025;37.772;-122.432;2023-06-14T01:16:56;2;2;
64613;PMS5003;51025;37.772;-122.432;2023-06-14T01:19:26;2;2;
64613;PMS5003;51025;37.772;-122.432;2023-06-14T01:21:55;2;2;
64613;PMS5003;51025;37.772;-122.432;2023-06-14T01:24:24;1;1;
64613;PMS5003;51025;37.772;-122.432;2023-06-14T01:26:52;1;1;
64613;PMS5003;51025;37.772;-122.432;2023-06-14T01:29:22;5;3;
64613;PMS5003;51025;37.772;-122.432;2023-06-14T01:31:52;1;1;
64613;PMS5003;51025;37.772;-122.432;2023-06-14T01:34:21;2;1;
64613;PMS5003;51025;37.772;-122.432;2023-06-14T01:36:50;1;1;
64613;PMS5003;51025;37.772;-122.432;2023-06-14T01:39:20;2;1;
64613;PMS5003;51025;37.772;-122.432;2023-06-14T01:41:49;3;3;
64613;PMS5003;51025;37.772;-122.432;2023-06-14T01:44:19;2;1;
64613;PMS5003;51025;37.772;-122.432;2023-06-14T01:46:48;2;2;
64613;PMS5003;51025;37.772;-122.432;2023-06-14T01:49:18;1;1;
64613;PMS5003;51025;37.772;-122.432;2023-06-14T01:51:47;1;1;
64613;PMS5003;51025;37.772;-122.432;2023-06-14T01:54:17;0;0;
64613;PMS5003;51025;37.772;-122.432;2023-06-14T01:56:46;2;2;
64613;PMS5003;51025;37.772;-122.432;2023-06-14T01:59:14;2;2;
64613;PMS5003;51025;37.772;-122.432;2023-06-14T02:01:42;1;1;
64613;PMS5003;51025;37.772;-122.432;2023-06-14T02:04:11;1;1;
64613;PMS5003;51025;37.772;-122.432;2023-06-14T02:06:39;1;1;
64613;PMS5003;51025;37.772;-122.432;2023-06-14T02:09:08;1;1;
64613;PMS5003;51025;37.772;-122.432;2023-06-14T02:11:36;0;0;
64613;PMS5003;51025;37.772;-122.432;2023-06-14T02:14:04;1;1;
64613;PMS5003;51025;37.772;-122.432;2023-06-14T02:16:32;2;0;
64613;PMS5003;51025;37.772;-122.432;2023-06-14T02:19:01;1;1;
64613;PMS5003;51025;37.772;-122.432;2023-06-14T02:21:31;1;1;
64613;PMS5003;51025;37.772;-122.432;2023-06-14T02:23:59;2;2;
64613;PMS5003;51025;37.772;-122.432;2023-06-14T02:26:27;1;1;
64613;PMS5003;51025;37.772;-122.432;2023-06-14T02:28:55;0;0;
64613;PMS5003;51025;37.772;-122.432;2023-06-14T02:31:23;3;3;
64613;PMS5003;51025;37.772;-122.432;2023-06-14T02:33:52;1;1;
64613;PMS5003;51025;37.772;-122.432;2023-06-14T02:36:20;2;2;
64613;PMS5003;51025;37.772;-122.432;2023-06-14T02:38:48;1;1;
64613;PMS5003;51025;37.772;-122.432;2023-06-14T02:41:16;2;2;
64613;PMS5003;51025;37.772;-122.432;2023-06-14T02:43:44;1;1;
64613;PMS5003;51025;37.772;-122.432;2023-06-14T02:46:13;3;1;
64613;PMS5003;51025;37.772;-122.432;2023-06-14T02:48:42;2;2;
64613;PMS5003;51025;37.772;-122.432;2023-06-14T02:51:10;1;1;
64613;PMS5003;51025;37.772;-122.432;2023-06-14T02:53:39;1;1;
64613;PMS5003;51025;37.772;-122.432;2023-06-14T02:56:07;2;2;
64613;PMS5003;51025;37.772;-122.432;2023-06-14T02:58:36;0;0;
64613;PMS5003;51025;37.772;-122.432;2023-06-14T03:01:04;1;1;
64613;PMS5003;51025;37.772;-122.432;2023-06-14T03:03:33;1;1;
64613;PMS5003;51025;37.772;-122.432;2023-06-14T03:06:01;1;1;
64613;PMS5003;51025;37.772;-122.432;2023-06-14T03:08:29;2;2;
64613;PMS5003;51025;37.772;-122.432;2023-06-14T03:10:57;4;1;
64613;PMS5003;51025;37.772;-122.432;2023-06-14T03:13:25;0;0;
64613;PMS5003;51025;37.772;-122.432;2023-06-14T03:15:53;3;3;
64613;PMS5003;51025;37.772;-122.432;2023-06-14T03:18:21;2;2;
64613;PMS5003;51025;37.772;-122.432;2023-06-14T03:20:50;6;6;
64613;PMS5003;51025;37.772;-122.432;2023-06-14T03:23:18;2;2;
64613;PMS5003;51025;37.772;-122.432;2023-06-14T03:25:46;3;3;
64613;PMS5003;51025;37.772;-122.432;2023-06-14T03:28:14;1;1;
64613;PMS5003;51025;37.772;-122.432;2023-06-14T03:30:43;2;2;
64613;PMS5003;51025;37.772;-122.432;2023-06-14T03:33:11;2;2;
64613;PMS5003;51025;37.772;-122.432;2023-06-14T03:35:39;2;1;
64613;PMS5003;51025;37.772;-122.432;2023-06-14T03:38:08;2;2;
64613;PMS5003;51025;37.772;-122.432;2023-06-14T03:40:36;3;1;
64613;PMS5003;51025;37.772;-122.432;2023-06-14T03:43:04;2;1;
64613;PMS5003;51025;37.772;-122.432;2023-06-14T03:45:32;1;1;
64613;PMS5003;51025;37.772;-122.432;2023-06-14T03:48:00;4;3;
64613;PMS5003;51025;37.772;-122.432;2023-06-14T03:50:28;3;1;
64613;PMS5003;51025;37.772;-122.432;2023-06-14T03:52:56;1;1;
64613;PMS5003;51025;37.772;-122.432;2023-06-14T03:55:25;3;2;
64613;PMS5003;51025;37.772;-122.432;2023-06-14T03:57:53;3;3;
64613;PMS5003;51025;37.772;-122.432;2023-06-14T04:00:21;2;2;
64613;PMS5003;51025;37.772;-122.432;2023-06-14T04:02:50;2;2;
64613;PMS5003;51025;37.772;-122.432;2023-06-14T04:05:18;2;2;
64613;PMS5003;51025;37.772;-122.432;2023-06-14T04:07:46;5;3;
64613;PMS5003;51025;37.772;-122.432;2023-06-14T04:10:14;3;3;
64613;PMS5003;51025;37.772;-122.432;2023-06-14T04:12:43;2;2;
64613;PMS5003;51025;37.772;-122.432;2023-06-14T04:15:11;1;1;
64613;PMS5003;51025;37.772;-122.432;2023-06-14T04:17:41;4;3;
64613;PMS5003;51025;37.772;-122.432;2023-06-14T04:20:09;2;2;
64613;PMS5003;51025;37.772;-122.432;2023-06-14T04:22:37;3;1;
64613;PMS5003;51025;37.772;-122.432;2023-06-14T04:25:06;3;2;
64613;PMS5003;51025;37.772;-122.432;2023-06-14T04:27:34;4;2;
64613;PMS5003;51025;37.772;-122.432;2023-06-14T04:30:03;5;2;
64613;PMS5003;51025;37.772;-122.432;2023-06-14T04:32:32;1;1;
64613;PMS5003;51025;37.772;-122.432;2023-06-14T04:35:00;2;2;
64613;PMS5003;51025;37.772;-122.432;2023-06-14T04:37:28;1;1;
64613;PMS5003;51025;37.772;-122.432;2023-06-14T04:39:56;2;2;
64613;PMS5003;51025;37.772;-122.432;2023-06-14T04:42:24;1;1;
64613;PMS5003;51025;37.772;-122.432;2023-06-14T04:44:52;2;2;
64613;PMS5003;51025;37.772;-122.432;2023-06-14T04:47:20;2;2;
64613;PMS5003;51025;37.772;-122.432;2023-06-14T04:49:48;1;1;
64613;PMS5003;51025;37.772;-122.432;2023-06-14T04:52:16;3;3;
64613;PMS5003;51025;37.772;-122.432;2023-06-14T04:54:44;2;2;
64613;PMS5003;51025;37.772;-122.432;2023-06-14T04:57:13;4;3;
64613;PMS5003;51025;37.772;-122.432;2023-06-14T04:59:41;5;3;
64613;PMS5003;51025;37.772;-122.432;2023-06-14T05:02:09;1;1;
64613;PMS5003;51025;37.772;-122.432;2023-06-14T05:04:38;4;2;
64613;PMS5003;51025;37.772;-122.432;2023-06-14T05:07:07;2;2;
64613;PMS5003;51025;37.772;-122.432;2023-06-14T05:09:36;2;2;
64613;PMS5003;51025;37.772;-122.432;2023-06-14T05:12:04;1;1;
64613;PMS5003;51025;37.772;-122.432;2023-06-14T05:14:33;3;3;
64613;PMS5003;51025;37.772;-122.432;2023-06-14T05:17:01;3;3;
64613;PMS5003;51025;37.772;-122.432;2023-06-14T05:19:30;0;0;
64613;PMS5003;51025;37.772;-122.432;2023-06-14T05:21:59;3;3;
64613;PMS5003;51025;37.772;-122.432;2023-06-14T05:24:27;2;0;
64613;PMS5003;51025;37.772;-122.432;2023-06-14T05:26:55;2;2;
64613;PMS5003;51025;37.772;-122.432;2023-06-14T05:29:23;4;2;
64613;PMS5003;51025;37.772;-122.432;2023-06-14T05:31:51;2;2;
64613;PMS5003;51025;37.772;-122.432;2023-06-14T05:34:20;4;2;
64613;PMS5003;51025;37.772;-122.432;2023-06-14T05:36:48;1;1;
64613;PMS5003;51025;37.772;-122.432;2023-06-14T05:39:16;1;1;
64613;PMS5003;51025;37.772;-122.432;2023-06-14T05:41:45;1;1;
64613;PMS5003;51025;37.772;-122.432;2023-06-14T05:44:13;3;1;
64613;PMS5003;51025;37.772;-122.432;2023-06-14T05:46:42;1;1;
64613;PMS5003;51025;37.772;-122.432;2023-06-14T05:49:10;2;2;
64613;PMS5003;51025;37.772;-122.432;2023-06-14T05:51:38;1;1;
64613;PMS5003;51025;37.772;-122.432;2023-06-14T05:54:06;2;2;
64613;PMS5003;51025;37.772;-122.432;2023-06-14T05:56:34;3;2;
64613;PMS5003;51025;37.772;-122.432;2023-06-14T05:59:02;5;3;
64613;PMS5003;51025;37.772;-122.432;2023-06-14T06:01:31;3;2;
64613;PMS5003;51025;37.772;-122.432;2023-06-14T06:03:59;5;3;
64613;PMS5003;51025;37.772;-122.432;2023-06-14T06:06:27;4;4;
64613;PMS5003;51025;37.772;-122.432;2023-06-14T06:08:57;6;5;
64613;PMS5003;51025;37.772;-122.432;2023-06-14T06:11:25;8;6;
64613;PMS5003;51025;37.772;-122.432;2023-06-14T06:13:53;14;7;
64613;PMS5003;51025;37.772;-122.432;2023-06-14T06:16:21;9;9;
64613;PMS5003;51025;37.772;-122.432;2023-06-14T06:18:50;8;6;
64613;PMS5003;51025;37.772;-122.432;2023-06-14T06:21:18;11;8;
64613;PMS5003;51025;37.772;-122.432;2023-06-14T06:23:47;7;7;
64613;PMS5003;51025;37.772;-122.432;2023-06-14T06:26:15;9;7;
64613;PMS5003;51025;37.772;-122.432;2023-06-14T06:28:43;8;7;
64613;PMS5003;51025;37.772;-122.432;2023-06-14T06:31:11;6;5;
64613;PMS5003;51025;37.772;-122.432;2023-06-14T06:33:39;9;8;
64613;PMS5003;51025;37.772;-122.432;2023-06-14T06:36:07;7;6;
64613;PMS5003;51025;37.772;-122.432;2023-06-14T06:38:35;5;4;
64613;PMS5003;51025;37.772;-122.432;2023-06-14T06:41:03;9;7;
64613;PMS5003;51025;37.772;-122.432;2023-06-14T06:43:31;5;5;
64613;PMS5003;51025;37.772;-122.432;2023-06-14T06:45:59;9;5;
64613;PMS5003;51025;37.772;-122.432;2023-06-14T06:48:27;6;4;
64613;PMS5003;51025;37.772;-122.432;2023-06-14T06:50:55;8;7;
64613;PMS5003;51025;37.772;-122.432;2023-06-14T06:53:23;5;5;
64613;PMS5003;51025;37.772;-122.432;2023-06-14T06:55:52;6;6;
64613;PMS5003;51025;37.772;-122.432;2023-06-14T06:58:20;8;6;
64613;PMS5003;51025;37.772;-122.432;2023-06-14T07:00:48;7;6;
64613;PMS5003;51025;37.772;-122.432;2023-06-14T07:03:17;4;4;
64613;PMS5003;51025;37.772;-122.432;2023-06-14T07:05:45;5;4;
64613;PMS5003;51025;37.772;-122.432;2023-06-14T07:08:13;5;4;
64613;PMS5003;51025;37.772;-122.432;2023-06-14T07:10:41;5;5;
64613;PMS5003;51025;37.772;-122.432;2023-06-14T07:13:09;5;5;
64613;PMS5003;51025;37.772;-122.432;2023-06-14T07:15:37;4;4;
64613;PMS5003;51025;37.772;-122.432;2023-06-14T07:18:06;3;3;
64613;PMS5003;51025;37.772;-122.432;2023-06-14T07:20:34;3;3;
64613;PMS5003;51025;37.772;-122.432;2023-06-14T07:23:02;10;8;
64613;PMS5003;51025;37.772;-122.432;2023-06-14T07:25:31;3;3;
64613;PMS5003;51025;37.772;-122.432;2023-06-14T07:27:59;5;4;
64613;PMS5003;51025;37.772;-122.432;2023-06-14T07:30:27;3;3;
64613;PMS5003;51025;37.772;-122.432;2023-06-14T07:32:55;5;4;
64613;PMS5003;51025;37.772;-122.432;2023-06-14T07:35:23;2;2;
64613;PMS5003;51025;37.772;-122.432;2023-06-14T07:37:52;4;4;
64613;PMS5003;51025;37.772;-122.432;2023-06-14T07:40:20;5;4;
64613;PMS5003;51025;37.772;-122.432;2023-06-14T07:42:48;3;3;
64613;PMS5003;51025;37.772;-122.432;2023-06-14T07:45:17;4;3;
64613;PMS5003;51025;37.772;-122.432;2023-06-14T07:47:46;3;3;
64613;PMS5003;51025;37.772;-122.432;2023-06-14T07:50:14;5;4;
64613;PMS5003;51025;37.772;-122.432;2023-06-14T07:52:43;5;5;
64613;PMS5003;51025;37.772;-122.432;2023-06-14T07:55:12;7;5;
64613;PMS5003;51025;37.772;-122.432;2023-06-14T07:57:40;6;5;
64613;PMS5003;51025;37.772;-122.432;2023-06-14T08:00:09;5;4;
64613;PMS5003;51025;37.772;-122.432;2023-06-14T08:02:37;4;4;
64613;PMS5003;51025;37.772;-122.432;2023-06-14T08:05:06;11;6;
64613;PMS5003;51025;37.772;-122.432;2023-06-14T08:07:36;5;2;
64613;PMS5003;51025;37.772;-122.432;2023-06-14T08:10:04;6;4;
64613;PMS5003;51025;37.772;-122.432;2023-06-14T08:12:33;3;3;
64613;PMS5003;51025;37.772;-122.432;2023-06-14T08:15:02;5;4;
64613;PMS5003;51025;37.772;-122.432;2023-06-14T08:17:31;5;5;
64613;PMS5003;51025;37.772;-122.432;2023-06-14T08:19:59;4;4;
64613;PMS5003;51025;37.772;-122.432;2023-06-14T08:22:27;3;3;
64613;PMS5003;51025;37.772;-122.432;2023-06-14T08:24:55;5;4;
64613;PMS5003;51025;37.772;-122.432;2023-06-14T08:27:23;5;4;
64613;PMS5003;51025;37.772;-122.432;2023-06-14T08:29:52;5;5;
64613;PMS5003;51025;37.772;-122.432;2023-06-14T08:32:20;2;2;
64613;PMS5003;51025;37.772;-122.432;2023-06-14T08:34:49;3;2;
64613;PMS5003;51025;37.772;-122.432;2023-06-14T08:37:17;3;3;
64613;PMS5003;51025;37.772;-122.432;2023-06-14T08:39:46;5;5;
64613;PMS5003;51025;37.772;-122.432;2023-06-14T08:42:14;4;1;
64613;PMS5003;51025;37.772;-122.432;2023-06-14T08:44:46;4;3;
64613;PMS5003;51025;37.772;-122.432;2023-06-14T08:47:15;3;3;
64613;PMS5003;51025;37.772;-122.432;2023-06-14T08:49:45;5;4;
64613;PMS5003;51025;37.772;-122.432;2023-06-14T08:52:14;5;3;
64613;PMS5003;51025;37.772;-122.432;2023-06-14T08:54:46;3;3;
64613;PMS5003;51025;37.772;-122.432;2023-06-14T08:57:15;5;4;
64613;PMS5003;51025;37.772;-122.432;2023-06-14T08:59:46;1;1;
64613;PMS5003;51025;37.772;-122.432;2023-06-14T09:02:15;3;3;
64613;PMS5003;51025;37.772;-122.432;2023-06-14T09:04:43;2;2;
64613;PMS5003;51025;37.772;-122.432;2023-06-14T09:07:11;4;2;
64613;PMS5003;51025;37.772;-122.432;2023-06-14T09:09:40;5;3;
64613;PMS5003;51025;37.772;-122.432;2023-06-14T09:12:08;4;2;
64613;PMS5003;51025;37.772;-122.432;2023-06-14T09:14:38;4;4;
64613;PMS5003;51025;37.772;-122.432;2023-06-14T09:17:07;8;7;
64613;PMS5003;51025;37.772;-122.432;2023-06-14T09:19:35;2;2;
64613;PMS5003;51025;37.772;-122.432;2023-06-14T09:22:03;4;3;
64613;PMS5003;51025;37.772;-122.432;2023-06-14T09:24:31;2;2;
64613;PMS5003;51025;37.772;-122.432;2023-06-14T09:26:59;2;2;
64613;PMS5003;51025;37.772;-122.432;2023-06-14T09:29:28;1;1;
64613;PMS5003;51025;37.772;-122.432;2023-06-14T09:31:56;4;4;
64613;PMS5003;51025;37.772;-122.432;2023-06-14T09:34:24;3;1;
64613;PMS5003;51025;37.772;-122.432;2023-06-14T09:36:52;3;2;
64613;PMS5003;51025;37.772;-122.432;2023-06-14T09:39:21;3;2;
64613;PMS5003;51025;37.772;-122.432;2023-06-14T09:41:49;2;2;
64613;PMS5003;51025;37.772;-122.432;2023-06-14T09:44:17;2;2;
64613;PMS5003;51025;37.772;-122.432;2023-06-14T09:46:46;1;1;
64613;PMS5003;51025;37.772;-122.432;2023-06-14T09:49:16;3;3;
64613;PMS5003;51025;37.772;-122.432;2023-06-14T09:51:45;3;2;
64613;PMS5003;51025;37.772;-122.432;2023-06-14T09:54:17;4;4;
64613;PMS5003;51025;37.772;-122.432;2023-06-14T09:56:50;3;2;
64613;PMS5003;51025;37.772;-122.432;2023-06-14T09:59:21;4;2;
64613;PMS5003;51025;37.772;-122.432;2023-06-14T10:01:53;3;3;
64613;PMS5003;51025;37.772;-122.432;2023-06-14T10:04:26;3;2;
64613;PMS5003;51025;37.772;-122.432;2023-06-14T10:06:57;2;2;
64613;PMS5003;51025;37.772;-122.432;2023-06-14T10:09:26;4;2;
64613;PMS5003;51025;37.772;-122.432;2023-06-14T10:11:54;2;2;
64613;PMS5003;51025;37.772;-122.432;2023-06-14T10:14:23;3;1;
64613;PMS5003;51025;37.772;-122.432;2023-06-14T10:16:55;3;3;
64613;PMS5003;51025;37.772;-122.432;2023-06-14T10:19:32;1;1;
64613;PMS5003;51025;37.772;-122.432;2023-06-14T10:22:06;0;0;
64613;PMS5003;51025;37.772;-122.432;2023-06-14T10:24:40;3;3;
64613;PMS5003;51025;37.772;-122.432;2023-06-14T10:27:11;5;5;
64613;PMS5003;51025;37.772;-122.432;2023-06-14T10:30:02;1;1;
64613;PMS5003;51025;37.772;-122.432;2023-06-14T10:32:31;4;3;
64613;PMS5003;51025;37.772;-122.432;2023-06-14T10:35:01;2;2;
64613;PMS5003;51025;37.772;-122.432;2023-06-14T10:37:34;1;1;
64613;PMS5003;51025;37.772;-122.432;2023-06-14T10:40:03;1;1;
64613;PMS5003;51025;37.772;-122.432;2023-06-14T10:42:33;2;2;
64613;PMS5003;51025;37.772;-122.432;2023-06-14T10:45:01;2;2;
64613;PMS5003;51025;37.772;-122.432;2023-06-14T10:47:30;3;1;
64613;PMS5003;51025;37.772;-122.432;2023-06-14T10:47:32;2;2;
64613;PMS5003;51025;37.772;-122.432;2023-06-14T10:50:04;4;3;
64613;PMS5003;51025;37.772;-122.432;2023-06-14T10:52:34;2;2;
64613;PMS5003;51025;37.772;-122.432;2023-06-14T10:55:07;2;2;
64613;PMS5003;51025;37.772;-122.432;2023-06-14T10:57:37;2;2;
64613;PMS5003;51025;37.772;-122.432;2023-06-14T11:00:07;0;0;
64613;PMS5003;51025;37.772;-122.432;2023-06-14T11:02:52;0;0;
64613;PMS5003;51025;37.772;-122.432;2023-06-14T11:05:09;0;0;
64613;PMS5003;51025;37.772;-122.432;2023-06-14T11:07:46;1;1;
64613;PMS5003;51025;37.772;-122.432;2023-06-14T11:10:28;1;1;
64613;PMS5003;51025;37.772;-122.432;2023-06-14T11:13:02;1;1;
64613;PMS5003;51025;37.772;-122.432;2023-06-14T11:15:32;3;1;
64613;PMS5003;51025;37.772;-122.432;2023-06-14T11:18:01;2;2;
64613;PMS5003;51025;37.772;-122.432;2023-06-14T11:20:32;0;0;
64613;PMS5003;51025;37.772;-122.432;2023-06-14T11:23:01;0;0;
64613;PMS5003;51025;37.772;-122.432;2023-06-14T11:25:30;3;2;
64613;PMS5003;51025;37.772;-122.432;2023-06-14T11:27:59;1;1;
64613;PMS5003;51025;37.772;-122.432;2023-06-14T11:30:27;2;2;
64613;PMS5003;51025;37.772;-122.432;2023-06-14T11:32:55;2;2;
64613;PMS5003;51025;37.772;-122.432;2023-06-14T11:35:24;2;1;
64613;PMS5003;51025;37.772;-122.432;2023-06-14T11:37:53;1;0;
64613;PMS5003;51025;37.772;-122.432;2023-06-14T11:40:23;2;2;
64613;PMS5003;51025;37.772;-122.432;2023-06-14T11:42:58;3;3;
64613;PMS5003;51025;37.772;-122.432;2023-06-14T11:45:27;0;0;
64613;PMS5003;51025;37.772;-122.432;2023-06-14T11:47:56;1;1;
64613;PMS5003;51025;37.772;-122.432;2023-06-14T11:50:26;1;1;
64613;PMS5003;51025;37.772;-122.432;2023-06-14T11:52:55;1;1;
64613;PMS5003;51025;37.772;-122.432;2023-06-14T11:55:24;0;0;
64613;PMS5003;51025;37.772;-122.432;2023-06-14T11:57:53;2;0;
64613;PMS5003;51025;37.772;-122.432;2023-06-14T12:00:24;1;1;
64613;PMS5003;51025;37.772;-122.432;2023-06-14T12:02:53;1;1;
64613;PMS5003;51025;37.772;-122.432;2023-06-14T12:05:22;0;0;
64613;PMS5003;51025;37.772;-122.432;2023-06-14T12:07:57;0;0;
64613;PMS5003;51025;37.772;-122.432;2023-06-14T12:10:27;0;0;
64613;PMS5003;51025;37.772;-122.432;2023-06-14T12:12:57;0;0;
64613;PMS5003;51025;37.772;-122.432;2023-06-14T12:15:28;1;1;
64613;PMS5003;51025;37.772;-122.432;2023-06-14T12:17:57;0;0;
64613;PMS5003;51025;37.772;-122.432;2023-06-14T12:20:29;1;1;
64613;PMS5003;51025;37.772;-122.432;2023-06-14T12:22:58;3;1;
64613;PMS5003;51025;37.772;-122.432;2023-06-14T12:25:27;0;0;
64613;PMS5003;51025;37.772;-122.432;2023-06-14T12:27:55;1;1;
64613;PMS5003;51025;37.772;-122.432;2023-06-14T12:30:24;0;0;
64613;PMS5003;51025;37.772;-122.432;2023-06-14T12:32:52;2;2;
64613;PMS5003;51025;37.772;-122.432;2023-06-14T12:35:19;1;1;
64613;PMS5003;51025;37.772;-122.432;2023-06-14T12:37:48;2;2;
64613;PMS5003;51025;37.772;-122.432;2023-06-14T12:40:16;0;0;
64613;PMS5003;51025;37.772;-122.432;2023-06-14T12:42:45;2;1;
64613;PMS5003;51025;37.772;-122.432;2023-06-14T12:45:14;1;1;
64613;PMS5003;51025;37.772;-122.432;2023-06-14T12:47:42;0;0;
64613;PMS5003;51025;37.772;-122.432;2023-06-14T12:50:10;1;1;
64613;PMS5003;51025;37.772;-122.432;2023-06-14T12:52:38;1;0;
64613;PMS5003;51025;37.772;-122.432;2023-06-14T12:55:06;1;1;
64613;PMS5003;51025;37.772;-122.432;2023-06-14T12:57:34;1;1;
64613;PMS5003;51025;37.772;-122.432;2023-06-14T13:00:03;1;1;
64613;PMS5003;51025;37.772;-122.432;2023-06-14T13:02:32;2;1;
64613;PMS5003;51025;37.772;-122.432;2023-06-14T13:05:01;2;2;
64613;PMS5003;51025;37.772;-122.432;2023-06-14T13:07:29;0;0;
64613;PMS5003;51025;37.772;-122.432;2023-06-14T13:09:58;1;1;
64613;PMS5003;51025;37.772;-122.432;2023-06-14T13:12:26;1;1;
64613;PMS5003;51025;37.772;-122.432;2023-06-14T13:14:54;2;0;
64613;PMS5003;51025;37.772;-122.432;2023-06-14T13:17:23;1;1;
64613;PMS5003;51025;37.772;-122.432;2023-06-14T13:19:51;1;1;
64613;PMS5003;51025;37.772;-122.432;2023-06-14T13:22:20;1;1;
64613;PMS5003;51025;37.772;-122.432;2023-06-14T13:24:48;1;1;
64613;PMS5003;51025;37.772;-122.432;2023-06-14T13:27:17;1;1;
64613;PMS5003;51025;37.772;-122.432;2023-06-14T13:29:44;2;2;
64613;PMS5003;51025;37.772;-122.432;2023-06-14T13:32:13;3;3;
64613;PMS5003;51025;37.772;-122.432;2023-06-14T13:34:46;2;2;
64613;PMS5003;51025;37.772;-122.432;2023-06-14T13:37:15;1;1;
64613;PMS5003;51025;37.772;-122.432;2023-06-14T13:39:43;2;2;
64613;PMS5003;51025;37.772;-122.432;2023-06-14T13:42:11;2;2;
64613;PMS5003;51025;37.772;-122.432;2023-06-14T13:44:39;0;0;
64613;PMS5003;51025;37.772;-122.432;2023-06-14T13:47:07;1;1;
64613;PMS5003;51025;37.772;-122.432;2023-06-14T13:49:35;1;1;
64613;PMS5003;51025;37.772;-122.432;2023-06-14T13:52:03;2;2;
64613;PMS5003;51025;37.772;-122.432;2023-06-14T13:54:32;2;2;
64613;PMS5003;51025;37.772;-122.432;2023-06-14T13:57:00;0;0;
64613;PMS5003;51025;37.772;-122.432;2023-06-14T13:59:29;1;1;
64613;PMS5003;51025;37.772;-122.432;2023-06-14T14:01:57;1;1;
64613;PMS5003;51025;37.772;-122.432;2023-06-14T14:04:26;0;0;
64613;PMS5003;51025;37.772;-122.432;2023-06-14T14:06:54;2;1;
64613;PMS5003;51025;37.772;-122.432;2023-06-14T14:09:23;2;1;
64613;PMS5003;51025;37.772;-122.432;2023-06-14T14:11:51;1;1;
64613;PMS5003;51025;37.772;-122.432;2023-06-14T14:14:19;1;1;
64613;PMS5003;51025;37.772;-122.432;2023-06-14T14:16:48;1;1;
64613;PMS5003;51025;37.772;-122.432;2023-06-14T14:19:17;1;1;
64613;PMS5003;51025;37.772;-122.432;2023-06-14T14:21:45;0;0;
64613;PMS5003;51025;37.772;-122.432;2023-06-14T14:24:13;1;1;
64613;PMS5003;51025;37.772;-122.432;2023-06-14T14:26:41;0;0;
64613;PMS5003;51025;37.772;-122.432;2023-06-14T14:29:09;2;2;
64613;PMS5003;51025;37.772;-122.432;2023-06-14T14:31:37;1;1;
64613;PMS5003;51025;37.772;-122.432;2023-06-14T14:34:07;6;6;
64613;PMS5003;51025;37.772;-122.432;2023-06-14T14:36:35;3;3;
64613;PMS5003;51025;37.772;-122.432;2023-06-14T14:39:03;1;1;
64613;PMS5003;51025;37.772;-122.432;2023-06-14T14:41:31;1;1;
64613;PMS5003;51025;37.772;-122.432;2023-06-14T14:43:59;2;2;
64613;PMS5003;51025;37.772;-122.432;2023-06-14T14:46:28;1;1;
64613;PMS5003;51025;37.772;-122.432;2023-06-14T14:48:56;2;2;
64613;PMS5003;51025;37.772;-122.432;2023-06-14T14:51:27;2;2;
64613;PMS5003;51025;37.772;-122.432;2023-06-14T14:53:55;1;1;
64613;PMS5003;51025;37.772;-122.432;2023-06-14T14:56:23;1;1;
64613;PMS5003;51025;37.772;-122.432;2023-06-14T14:58:52;2;2;
64613;PMS5003;51025;37.772;-122.432;2023-06-14T15:01:20;3;2;
64613;PMS5003;51025;37.772;-122.432;2023-06-14T15:03:49;1;1;
64613;PMS5003;51025;37.772;-122.432;2023-06-14T15:06:17;2;2;
64613;PMS5003;51025;37.772;-122.432;2023-06-14T15:08:45;2;2;
64613;PMS5003;51025;37.772;-122.432;2023-06-14T15:11:13;2;2;
64613;PMS5003;51025;37.772;-122.432;2023-06-14T15:13:41;4;2;
64613;PMS5003;51025;37.772;-122.432;2023-06-14T15:16:09;5;3;
64613;PMS5003;51025;37.772;-122.432;2023-06-14T15:18:37;2;2;
64613;PMS5003;51025;37.772;-122.432;2023-06-14T15:21:05;3;3;
64613;PMS5003;51025;37.772;-122.432;2023-06-14T15:23:33;3;3;
64613;PMS5003;51025;37.772;-122.432;2023-06-14T15:26:01;2;2;
64613;PMS5003;51025;37.772;-122.432;2023-06-14T15:28:29;1;1;
64613;PMS5003;51025;37.772;-122.432;2023-06-14T15:30:58;2;2;
64613;PMS5003;51025;37.772;-122.432;2023-06-14T15:33:26;2;2;
64613;PMS5003;51025;37.772;-122.432;2023-06-14T15:35:54;3;3;
64613;PMS5003;51025;37.772;-122.432;2023-06-14T15:38:22;2;2;
64613;PMS5003;51025;37.772;-122.432;2023-06-14T15:40:50;2;2;
64613;PMS5003;51025;37.772;-122.432;2023-06-14T15:43:18;5;4;
64613;PMS5003;51025;37.772;-122.432;2023-06-14T15:45:46;3;3;
64613;PMS5003;51025;37.772;-122.432;2023-06-14T15:48:15;4;4;
64613;PMS5003;51025;37.772;-122.432;2023-06-14T15:50:43;5;4;
64613;PMS5003;51025;37.772;-122.432;2023-06-14T15:53:11;3;2;
64613;PMS5003;51025;37.772;-122.432;2023-06-14T15:55:39;4;4;
64613;PMS5003;51025;37.772;-122.432;2023-06-14T15:58:07;5;4;
64613;PMS5003;51025;37.772;-122.432;2023-06-14T16:00:35;4;4;
64613;PMS5003;51025;37.772;-122.432;2023-06-14T16:03:03;4;4;
64613;PMS5003;51025;37.772;-122.432;2023-06-14T16:05:31;4;4;
64613;PMS5003;51025;37.772;-122.432;2023-06-14T16:08:00;4;4;
64613;PMS5003;51025;37.772;-122.432;2023-06-14T16:10:28;6;4;